WSSS

Singapore Changi International Airport

Singapore, Singapore
METAR WSSS 221500Z VRB02KT 9999 FEW018 SCT150 BKN300 28/26 Q1010 NOSIG
Observed Flight Rules
May-22 @ 15:00 UTC (36 minutes ago) Visual Flight Rules
Wind Visibility Clouds
Variable at 2 knots 10,000+ meters
  • Few at 1,800' AGL
  • Scattered at 15,000' AGL
  • Broken at 30,000' AGL
Temperatures Readings
Current 28°C / 82°F
Dewpoint 26°C / 79°F
Humidity 89%
Altimeter 29.82" Hg
Pressure 1010 hPa
Elevation 16
METAR WSSS 221500Z VRB02KT 9999 FEW018 SCT150 BKN300 28/26 Q1010 NOSIG
Observed Flight Rules
May-22 @ 15:00 UTC
(36 minutes ago)
VFR
Wind Visibility
Variable at 2 knots 10,000+ meters
Clouds
  • Few at 1,800' AGL
  • Scattered at 15,000' AGL
  • Broken at 30,000' AGL
Temperature Dewpoint
28°C / 82°F 26°C / 79°F
Humidity Altimeter Pressure
89% 29.82" Hg 1010 hPa